sensor_id;sensor_type;location;lat;lon;timestamp;temperature;humidity
51661;DHT22;37741;49.748;8.490;2023-11-22T00:00:36;8.40;85.70
51661;DHT22;37741;49.748;8.490;2023-11-22T00:03:02;8.40;85.80
51661;DHT22;37741;49.748;8.490;2023-11-22T00:05:27;8.40;85.70
51661;DHT22;37741;49.748;8.490;2023-11-22T00:07:53;8.30;85.70
51661;DHT22;37741;49.748;8.490;2023-11-22T00:10:19;8.30;85.80
51661;DHT22;37741;49.748;8.490;2023-11-22T00:12:45;8.30;85.90
51661;DHT22;37741;49.748;8.490;2023-11-22T00:15:11;8.30;85.80
51661;DHT22;37741;49.748;8.490;2023-11-22T00:17:37;8.30;85.90
51661;DHT22;37741;49.748;8.490;2023-11-22T00:20:03;8.20;85.90
51661;DHT22;37741;49.748;8.490;2023-11-22T00:22:34;8.20;85.90
51661;DHT22;37741;49.748;8.490;2023-11-22T00:25:01;8.20;85.90
51661;DHT22;37741;49.748;8.490;2023-11-22T00:27:27;8.20;85.90
51661;DHT22;37741;49.748;8.490;2023-11-22T00:29:53;8.10;86.00
51661;DHT22;37741;49.748;8.490;2023-11-22T00:32:19;8.10;86.10
51661;DHT22;37741;49.748;8.490;2023-11-22T00:34:45;8.10;86.20
51661;DHT22;37741;49.748;8.490;2023-11-22T00:37:11;8.10;86.30
51661;DHT22;37741;49.748;8.490;2023-11-22T00:39:36;8.10;86.30
51661;DHT22;37741;49.748;8.490;2023-11-22T00:42:03;8.00;86.20
51661;DHT22;37741;49.748;8.490;2023-11-22T00:44:29;8.00;86.30
51661;DHT22;37741;49.748;8.490;2023-11-22T00:46:55;8.00;86.20
51661;DHT22;37741;49.748;8.490;2023-11-22T00:49:23;8.00;85.50
51661;DHT22;37741;49.748;8.490;2023-11-22T00:51:49;8.00;85.90
51661;DHT22;37741;49.748;8.490;2023-11-22T00:54:16;7.90;86.00
51661;DHT22;37741;49.748;8.490;2023-11-22T00:56:41;7.90;86.20
51661;DHT22;37741;49.748;8.490;2023-11-22T00:59:07;7.90;86.10
51661;DHT22;37741;49.748;8.490;2023-11-22T01:01:34;7.80;86.10
51661;DHT22;37741;49.748;8.490;2023-11-22T01:03:59;7.80;85.60
51661;DHT22;37741;49.748;8.490;2023-11-22T01:06:25;7.80;85.70
51661;DHT22;37741;49.748;8.490;2023-11-22T01:08:50;7.80;85.50
51661;DHT22;37741;49.748;8.490;2023-11-22T01:11:16;7.80;85.50
51661;DHT22;37741;49.748;8.490;2023-11-22T01:13:42;7.80;85.50
51661;DHT22;37741;49.748;8.490;2023-11-22T01:16:09;7.80;85.40
51661;DHT22;37741;49.748;8.490;2023-11-22T01:18:36;7.70;85.10
51661;DHT22;37741;49.748;8.490;2023-11-22T01:21:02;7.70;85.20
51661;DHT22;37741;49.748;8.490;2023-11-22T01:23:29;7.70;85.20
51661;DHT22;37741;49.748;8.490;2023-11-22T01:25:55;7.70;85.20
51661;DHT22;37741;49.748;8.490;2023-11-22T01:28:21;7.60;85.20
51661;DHT22;37741;49.748;8.490;2023-11-22T01:30:47;7.60;85.20
51661;DHT22;37741;49.748;8.490;2023-11-22T01:33:12;7.60;85.20
51661;DHT22;37741;49.748;8.490;2023-11-22T01:35:38;7.60;85.20
51661;DHT22;37741;49.748;8.490;2023-11-22T01:38:04;7.60;85.20
51661;DHT22;37741;49.748;8.490;2023-11-22T01:40:30;7.60;85.20
51661;DHT22;37741;49.748;8.490;2023-11-22T01:42:59;7.50;85.10
51661;DHT22;37741;49.748;8.490;2023-11-22T01:45:25;7.50;85.10
51661;DHT22;37741;49.748;8.490;2023-11-22T01:47:52;7.50;85.00
51661;DHT22;37741;49.748;8.490;2023-11-22T01:50:18;7.40;85.10
51661;DHT22;37741;49.748;8.490;2023-11-22T01:52:44;7.40;85.10
51661;DHT22;37741;49.748;8.490;2023-11-22T01:55:12;7.40;84.90
51661;DHT22;37741;49.748;8.490;2023-11-22T01:57:38;7.40;85.10
51661;DHT22;37741;49.748;8.490;2023-11-22T02:00:05;7.30;85.20
51661;DHT22;37741;49.748;8.490;2023-11-22T02:02:35;7.40;85.30
51661;DHT22;37741;49.748;8.490;2023-11-22T02:05:01;7.30;85.50
51661;DHT22;37741;49.748;8.490;2023-11-22T02:07:27;7.30;85.50
51661;DHT22;37741;49.748;8.490;2023-11-22T02:09:53;7.30;85.50
51661;DHT22;37741;49.748;8.490;2023-11-22T02:12:19;7.20;85.60
51661;DHT22;37741;49.748;8.490;2023-11-22T02:14:45;7.20;85.60
51661;DHT22;37741;49.748;8.490;2023-11-22T02:17:11;7.20;85.60
51661;DHT22;37741;49.748;8.490;2023-11-22T02:19:37;7.20;85.70
51661;DHT22;37741;49.748;8.490;2023-11-22T02:22:03;7.20;85.80
51661;DHT22;37741;49.748;8.490;2023-11-22T02:24:29;7.20;85.90
51661;DHT22;37741;49.748;8.490;2023-11-22T02:26:54;7.10;85.90
51661;DHT22;37741;49.748;8.490;2023-11-22T02:29:21;7.10;85.90
51661;DHT22;37741;49.748;8.490;2023-11-22T02:31:47;7.10;85.90
51661;DHT22;37741;49.748;8.490;2023-11-22T02:34:13;7.10;85.80
51661;DHT22;37741;49.748;8.490;2023-11-22T02:36:42;7.00;85.70
51661;DHT22;37741;49.748;8.490;2023-11-22T02:39:09;7.00;85.70
51661;DHT22;37741;49.748;8.490;2023-11-22T02:41:34;7.00;85.70
51661;DHT22;37741;49.748;8.490;2023-11-22T02:44:01;7.00;86.40
51661;DHT22;37741;49.748;8.490;2023-11-22T02:46:26;7.00;85.80
51661;DHT22;37741;49.748;8.490;2023-11-22T02:48:52;6.90;85.80
51661;DHT22;37741;49.748;8.490;2023-11-22T02:51:19;6.90;85.90
51661;DHT22;37741;49.748;8.490;2023-11-22T02:53:46;6.90;85.80
51661;DHT22;37741;49.748;8.490;2023-11-22T02:56:14;6.90;85.80
51661;DHT22;37741;49.748;8.490;2023-11-22T02:58:40;6.90;85.80
51661;DHT22;37741;49.748;8.490;2023-11-22T03:01:06;6.80;85.70
51661;DHT22;37741;49.748;8.490;2023-11-22T03:03:33;6.80;85.70
51661;DHT22;37741;49.748;8.490;2023-11-22T03:05:59;6.80;85.70
51661;DHT22;37741;49.748;8.490;2023-11-22T03:08:24;6.80;85.70
51661;DHT22;37741;49.748;8.490;2023-11-22T03:10:50;6.70;85.70
51661;DHT22;37741;49.748;8.490;2023-11-22T03:13:16;6.70;85.80
51661;DHT22;37741;49.748;8.490;2023-11-22T03:15:42;6.70;86.50
51661;DHT22;37741;49.748;8.490;2023-11-22T03:18:08;6.70;86.00
51661;DHT22;37741;49.748;8.490;2023-11-22T03:20:34;6.70;86.00
51661;DHT22;37741;49.748;8.490;2023-11-22T03:23:00;6.60;86.00
51661;DHT22;37741;49.748;8.490;2023-11-22T03:25:26;6.70;86.10
51661;DHT22;37741;49.748;8.490;2023-11-22T03:27:54;6.60;86.00
51661;DHT22;37741;49.748;8.490;2023-11-22T03:30:20;6.60;86.10
51661;DHT22;37741;49.748;8.490;2023-11-22T03:32:46;6.60;86.20
51661;DHT22;37741;49.748;8.490;2023-11-22T03:35:11;6.60;86.30
51661;DHT22;37741;49.748;8.490;2023-11-22T03:37:37;6.60;86.20
51661;DHT22;37741;49.748;8.490;2023-11-22T03:40:05;6.60;86.30
51661;DHT22;37741;49.748;8.490;2023-11-22T03:42:31;6.50;86.30
51661;DHT22;37741;49.748;8.490;2023-11-22T03:44:56;6.50;86.30
51661;DHT22;37741;49.748;8.490;2023-11-22T03:47:24;6.40;86.30
51661;DHT22;37741;49.748;8.490;2023-11-22T03:49:50;6.40;86.40
51661;DHT22;37741;49.748;8.490;2023-11-22T03:52:15;6.40;86.30
51661;DHT22;37741;49.748;8.490;2023-11-22T03:54:41;6.40;86.30
51661;DHT22;37741;49.748;8.490;2023-11-22T03:57:06;6.40;86.40
51661;DHT22;37741;49.748;8.490;2023-11-22T03:59:34;6.40;86.50
51661;DHT22;37741;49.748;8.490;2023-11-22T04:02:00;6.30;86.40
51661;DHT22;37741;49.748;8.490;2023-11-22T04:04:25;6.30;86.60
51661;DHT22;37741;49.748;8.490;2023-11-22T04:06:51;6.30;86.50
51661;DHT22;37741;49.748;8.490;2023-11-22T04:09:18;6.30;86.70
51661;DHT22;37741;49.748;8.490;2023-11-22T04:11:44;6.30;86.70
51661;DHT22;37741;49.748;8.490;2023-11-22T04:14:09;6.30;86.70
51661;DHT22;37741;49.748;8.490;2023-11-22T04:16:35;6.30;86.80
51661;DHT22;37741;49.748;8.490;2023-11-22T04:19:01;6.20;86.80
51661;DHT22;37741;49.748;8.490;2023-11-22T04:21:27;6.20;86.80
51661;DHT22;37741;49.748;8.490;2023-11-22T04:23:52;6.20;86.80
51661;DHT22;37741;49.748;8.490;2023-11-22T04:26:18;6.20;86.80
51661;DHT22;37741;49.748;8.490;2023-11-22T04:28:45;6.20;86.80
51661;DHT22;37741;49.748;8.490;2023-11-22T04:31:11;6.20;86.80
51661;DHT22;37741;49.748;8.490;2023-11-22T04:33:37;6.10;86.80
51661;DHT22;37741;49.748;8.490;2023-11-22T04:36:03;6.10;86.80
51661;DHT22;37741;49.748;8.490;2023-11-22T04:38:29;6.10;86.80
51661;DHT22;37741;49.748;8.490;2023-11-22T04:40:54;6.10;86.90
51661;DHT22;37741;49.748;8.490;2023-11-22T04:43:20;6.10;86.90
51661;DHT22;37741;49.748;8.490;2023-11-22T04:45:46;6.00;86.80
51661;DHT22;37741;49.748;8.490;2023-11-22T04:48:11;6.00;86.80
51661;DHT22;37741;49.748;8.490;2023-11-22T04:50:40;6.00;86.90
51661;DHT22;37741;49.748;8.490;2023-11-22T04:53:06;6.00;86.90
51661;DHT22;37741;49.748;8.490;2023-11-22T04:55:31;6.00;86.90
51661;DHT22;37741;49.748;8.490;2023-11-22T04:57:57;6.00;87.00
51661;DHT22;37741;49.748;8.490;2023-11-22T05:00:22;5.90;86.90
51661;DHT22;37741;49.748;8.490;2023-11-22T05:02:48;5.90;86.90
51661;DHT22;37741;49.748;8.490;2023-11-22T05:05:14;5.90;87.50
51661;DHT22;37741;49.748;8.490;2023-11-22T05:07:39;5.90;86.90
51661;DHT22;37741;49.748;8.490;2023-11-22T05:10:05;5.90;86.80
51661;DHT22;37741;49.748;8.490;2023-11-22T05:12:34;5.90;87.00
51661;DHT22;37741;49.748;8.490;2023-11-22T05:15:01;5.90;87.00
51661;DHT22;37741;49.748;8.490;2023-11-22T05:17:26;5.90;87.00
51661;DHT22;37741;49.748;8.490;2023-11-22T05:19:52;5.80;86.90
51661;DHT22;37741;49.748;8.490;2023-11-22T05:22:17;5.80;87.00
51661;DHT22;37741;49.748;8.490;2023-11-22T05:24:44;5.80;87.00
51661;DHT22;37741;49.748;8.490;2023-11-22T05:27:09;5.80;86.90
51661;DHT22;37741;49.748;8.490;2023-11-22T05:29:35;5.80;86.60
51661;DHT22;37741;49.748;8.490;2023-11-22T05:32:02;5.70;86.20
51661;DHT22;37741;49.748;8.490;2023-11-22T05:34:28;5.70;86.30
51661;DHT22;37741;49.748;8.490;2023-11-22T05:36:54;5.70;86.40
51661;DHT22;37741;49.748;8.490;2023-11-22T05:39:20;5.70;86.40
51661;DHT22;37741;49.748;8.490;2023-11-22T05:41:47;5.70;86.60
51661;DHT22;37741;49.748;8.490;2023-11-22T05:44:14;5.70;86.70
51661;DHT22;37741;49.748;8.490;2023-11-22T05:46:42;5.60;86.60
51661;DHT22;37741;49.748;8.490;2023-11-22T05:49:07;5.60;86.70
51661;DHT22;37741;49.748;8.490;2023-11-22T05:51:33;5.60;86.70
51661;DHT22;37741;49.748;8.490;2023-11-22T05:53:59;5.60;86.80
51661;DHT22;37741;49.748;8.490;2023-11-22T05:56:25;5.60;86.70
51661;DHT22;37741;49.748;8.490;2023-11-22T05:58:51;5.60;86.70
51661;DHT22;37741;49.748;8.490;2023-11-22T06:01:16;5.60;86.70
51661;DHT22;37741;49.748;8.490;2023-11-22T06:03:42;5.50;86.50
51661;DHT22;37741;49.748;8.490;2023-11-22T06:06:08;5.50;86.50
51661;DHT22;37741;49.748;8.490;2023-11-22T06:08:34;5.50;86.50
51661;DHT22;37741;49.748;8.490;2023-11-22T06:11:00;5.50;86.50
51661;DHT22;37741;49.748;8.490;2023-11-22T06:13:26;5.50;86.50
51661;DHT22;37741;49.748;8.490;2023-11-22T06:15:53;5.40;86.50
51661;DHT22;37741;49.748;8.490;2023-11-22T06:18:18;5.40;86.40
51661;DHT22;37741;49.748;8.490;2023-11-22T06:20:45;5.40;86.50
51661;DHT22;37741;49.748;8.490;2023-11-22T06:23:11;5.40;86.50
51661;DHT22;37741;49.748;8.490;2023-11-22T06:25:37;5.40;86.50
51661;DHT22;37741;49.748;8.490;2023-11-22T06:28:07;5.40;86.60
51661;DHT22;37741;49.748;8.490;2023-11-22T06:30:33;5.40;86.70
51661;DHT22;37741;49.748;8.490;2023-11-22T06:33:00;5.30;86.60
51661;DHT22;37741;49.748;8.490;2023-11-22T06:35:26;5.30;86.60
51661;DHT22;37741;49.748;8.490;2023-11-22T06:37:52;5.30;87.20
51661;DHT22;37741;49.748;8.490;2023-11-22T06:40:18;5.30;86.60
51661;DHT22;37741;49.748;8.490;2023-11-22T06:42:46;5.30;86.60
51661;DHT22;37741;49.748;8.490;2023-11-22T06:45:11;5.30;86.70
51661;DHT22;37741;49.748;8.490;2023-11-22T06:47:39;5.30;86.60
51661;DHT22;37741;49.748;8.490;2023-11-22T06:50:05;5.20;86.60
51661;DHT22;37741;49.748;8.490;2023-11-22T06:52:35;5.20;86.70
51661;DHT22;37741;49.748;8.490;2023-11-22T06:55:03;5.20;86.70
51661;DHT22;37741;49.748;8.490;2023-11-22T06:57:28;5.20;86.60
51661;DHT22;37741;49.748;8.490;2023-11-22T06:59:58;5.20;87.20
51661;DHT22;37741;49.748;8.490;2023-11-22T07:02:24;5.20;86.60
51661;DHT22;37741;49.748;8.490;2023-11-22T07:04:50;5.20;86.60
51661;DHT22;37741;49.748;8.490;2023-11-22T07:07:15;5.20;86.60
51661;DHT22;37741;49.748;8.490;2023-11-22T07:09:44;5.20;86.60
51661;DHT22;37741;49.748;8.490;2023-11-22T07:12:10;5.20;86.60
51661;DHT22;37741;49.748;8.490;2023-11-22T07:14:36;5.20;86.60
51661;DHT22;37741;49.748;8.490;2023-11-22T07:17:02;5.10;86.50
51661;DHT22;37741;49.748;8.490;2023-11-22T07:19:28;5.10;86.40
51661;DHT22;37741;49.748;8.490;2023-11-22T07:21:54;5.10;86.20
51661;DHT22;37741;49.748;8.490;2023-11-22T07:24:19;5.10;86.30
51661;DHT22;37741;49.748;8.490;2023-11-22T07:26:45;5.10;86.20
51661;DHT22;37741;49.748;8.490;2023-11-22T07:29:11;5.10;86.30
51661;DHT22;37741;49.748;8.490;2023-11-22T07:31:38;5.00;86.30
51661;DHT22;37741;49.748;8.490;2023-11-22T07:34:04;5.00;86.20
51661;DHT22;37741;49.748;8.490;2023-11-22T07:36:31;5.00;86.20
51661;DHT22;37741;49.748;8.490;2023-11-22T07:38:57;5.00;86.10
51661;DHT22;37741;49.748;8.490;2023-11-22T07:41:24;5.00;86.20
51661;DHT22;37741;49.748;8.490;2023-11-22T07:43:52;5.00;86.10
51661;DHT22;37741;49.748;8.490;2023-11-22T07:46:17;5.00;86.20
51661;DHT22;37741;49.748;8.490;2023-11-22T07:48:44;4.90;86.20
51661;DHT22;37741;49.748;8.490;2023-11-22T07:51:13;5.00;86.20
51661;DHT22;37741;49.748;8.490;2023-11-22T07:53:42;4.90;86.10
51661;DHT22;37741;49.748;8.490;2023-11-22T07:56:09;5.00;85.90
51661;DHT22;37741;49.748;8.490;2023-11-22T07:58:37;4.90;85.80
51661;DHT22;37741;49.748;8.490;2023-11-22T08:01:02;4.90;85.90
51661;DHT22;37741;49.748;8.490;2023-11-22T08:03:31;4.90;85.40
51661;DHT22;37741;49.748;8.490;2023-11-22T08:05:57;4.90;85.60
51661;DHT22;37741;49.748;8.490;2023-11-22T08:08:23;4.90;85.60
51661;DHT22;37741;49.748;8.490;2023-11-22T08:10:50;4.90;85.40
51661;DHT22;37741;49.748;8.490;2023-11-22T08:13:19;4.90;85.20
51661;DHT22;37741;49.748;8.490;2023-11-22T08:15:51;4.90;85.20
51661;DHT22;37741;49.748;8.490;2023-11-22T08:18:16;4.80;85.20
51661;DHT22;37741;49.748;8.490;2023-11-22T08:20:44;4.90;85.30
51661;DHT22;37741;49.748;8.490;2023-11-22T08:23:10;4.80;85.30
51661;DHT22;37741;49.748;8.490;2023-11-22T08:25:38;4.80;85.20
51661;DHT22;37741;49.748;8.490;2023-11-22T08:28:04;4.90;85.40
51661;DHT22;37741;49.748;8.490;2023-11-22T08:30:33;4.80;85.30
51661;DHT22;37741;49.748;8.490;2023-11-22T08:33:01;4.80;85.30
51661;DHT22;37741;49.748;8.490;2023-11-22T08:35:27;4.80;85.20
51661;DHT22;37741;49.748;8.490;2023-11-22T08:37:53;4.80;85.80
51661;DHT22;37741;49.748;8.490;2023-11-22T08:40:19;4.90;85.20
51661;DHT22;37741;49.748;8.490;2023-11-22T08:42:47;4.90;85.00
51661;DHT22;37741;49.748;8.490;2023-11-22T08:45:13;4.80;85.00
51661;DHT22;37741;49.748;8.490;2023-11-22T08:47:39;4.90;85.00
51661;DHT22;37741;49.748;8.490;2023-11-22T08:50:10;4.90;84.90
51661;DHT22;37741;49.748;8.490;2023-11-22T08:52:38;4.90;85.00
51661;DHT22;37741;49.748;8.490;2023-11-22T08:55:05;4.90;84.90
51661;DHT22;37741;49.748;8.490;2023-11-22T08:57:39;4.90;84.90
51661;DHT22;37741;49.748;8.490;2023-11-22T09:00:08;4.90;84.90
51661;DHT22;37741;49.748;8.490;2023-11-22T09:02:35;4.90;84.70
51661;DHT22;37741;49.748;8.490;2023-11-22T09:05:02;4.80;84.90
51661;DHT22;37741;49.748;8.490;2023-11-22T09:07:32;4.90;85.00
51661;DHT22;37741;49.748;8.490;2023-11-22T09:09:58;4.80;84.90
51661;DHT22;37741;49.748;8.490;2023-11-22T09:12:24;4.90;84.90
51661;DHT22;37741;49.748;8.490;2023-11-22T09:14:52;4.90;84.80
51661;DHT22;37741;49.748;8.490;2023-11-22T09:17:18;4.90;84.70
51661;DHT22;37741;49.748;8.490;2023-11-22T09:19:44;4.90;84.60
51661;DHT22;37741;49.748;8.490;2023-11-22T09:22:10;4.90;84.40
51661;DHT22;37741;49.748;8.490;2023-11-22T09:24:36;4.90;84.20
51661;DHT22;37741;49.748;8.490;2023-11-22T09:27:03;4.90;84.20
51661;DHT22;37741;49.748;8.490;2023-11-22T09:29:31;4.90;84.20
51661;DHT22;37741;49.748;8.490;2023-11-22T09:31:58;4.90;84.10
51661;DHT22;37741;49.748;8.490;2023-11-22T09:34:28;4.90;84.00
51661;DHT22;37741;49.748;8.490;2023-11-22T09:36:55;4.90;83.90
51661;DHT22;37741;49.748;8.490;2023-11-22T09:39:23;4.90;83.80
51661;DHT22;37741;49.748;8.490;2023-11-22T09:41:50;4.90;83.80
51661;DHT22;37741;49.748;8.490;2023-11-22T09:44:17;4.90;83.80
51661;DHT22;37741;49.748;8.490;2023-11-22T09:46:43;4.90;83.70
51661;DHT22;37741;49.748;8.490;2023-11-22T09:49:16;4.90;83.40
51661;DHT22;37741;49.748;8.490;2023-11-22T09:51:47;4.90;83.50
51661;DHT22;37741;49.748;8.490;2023-11-22T09:54:14;4.90;83.50
51661;DHT22;37741;49.748;8.490;2023-11-22T09:56:41;4.90;83.30
51661;DHT22;37741;49.748;8.490;2023-11-22T09:59:16;4.90;82.90
51661;DHT22;37741;49.748;8.490;2023-11-22T10:01:43;4.90;83.00
51661;DHT22;37741;49.748;8.490;2023-11-22T10:04:08;4.90;82.80
51661;DHT22;37741;49.748;8.490;2023-11-22T10:06:34;5.00;82.90
51661;DHT22;37741;49.748;8.490;2023-11-22T10:09:04;4.90;82.80
51661;DHT22;37741;49.748;8.490;2023-11-22T10:11:34;4.90;82.70
51661;DHT22;37741;49.748;8.490;2023-11-22T10:14:02;5.00;82.70
51661;DHT22;37741;49.748;8.490;2023-11-22T10:16:27;5.00;82.40
51661;DHT22;37741;49.748;8.490;2023-11-22T10:18:53;5.00;82.50
51661;DHT22;37741;49.748;8.490;2023-11-22T10:21:19;5.00;82.30
51661;DHT22;37741;49.748;8.490;2023-11-22T10:23:47;5.00;82.10
51661;DHT22;37741;49.748;8.490;2023-11-22T10:26:13;5.00;81.90
51661;DHT22;37741;49.748;8.490;2023-11-22T10:28:41;5.00;81.90
51661;DHT22;37741;49.748;8.490;2023-11-22T10:31:08;5.00;82.00
51661;DHT22;37741;49.748;8.490;2023-11-22T10:33:44;5.00;82.20
51661;DHT22;37741;49.748;8.490;2023-11-22T10:36:10;5.00;81.80
51661;DHT22;37741;49.748;8.490;2023-11-22T10:38:38;5.00;81.70
51661;DHT22;37741;49.748;8.490;2023-11-22T10:41:07;5.00;81.00
51661;DHT22;37741;49.748;8.490;2023-11-22T10:43:34;5.00;81.40
51661;DHT22;37741;49.748;8.490;2023-11-22T10:46:02;5.00;81.70
51661;DHT22;37741;49.748;8.490;2023-11-22T10:48:28;5.00;81.60
51661;DHT22;37741;49.748;8.490;2023-11-22T10:50:57;5.00;81.70
51661;DHT22;37741;49.748;8.490;2023-11-22T10:53:30;5.00;81.70
51661;DHT22;37741;49.748;8.490;2023-11-22T10:56:14;5.00;81.80
51661;DHT22;37741;49.748;8.490;2023-11-22T10:59:02;5.00;82.40
51661;DHT22;37741;49.748;8.490;2023-11-22T11:01:31;5.00;81.90
51661;DHT22;37741;49.748;8.490;2023-11-22T11:04:09;5.10;82.00
51661;DHT22;37741;49.748;8.490;2023-11-22T11:06:37;5.10;81.90
51661;DHT22;37741;49.748;8.490;2023-11-22T11:09:04;5.10;81.80
51661;DHT22;37741;49.748;8.490;2023-11-22T11:11:37;5.10;81.40
51661;DHT22;37741;49.748;8.490;2023-11-22T11:14:05;5.10;81.60
51661;DHT22;37741;49.748;8.490;2023-11-22T11:16:35;5.10;81.60
51661;DHT22;37741;49.748;8.490;2023-11-22T11:19:14;5.10;81.50
51661;DHT22;37741;49.748;8.490;2023-11-22T11:21:40;5.10;81.40
51661;DHT22;37741;49.748;8.490;2023-11-22T11:24:06;5.10;81.60
51661;DHT22;37741;49.748;8.490;2023-11-22T11:26:33;5.10;81.60
51661;DHT22;37741;49.748;8.490;2023-11-22T11:29:01;5.10;81.60
51661;DHT22;37741;49.748;8.490;2023-11-22T11:31:32;5.20;81.70
51661;DHT22;37741;49.748;8.490;2023-11-22T11:34:00;5.20;81.80
51661;DHT22;37741;49.748;8.490;2023-11-22T11:36:28;5.20;81.80
51661;DHT22;37741;49.748;8.490;2023-11-22T11:38:56;5.20;81.80
51661;DHT22;37741;49.748;8.490;2023-11-22T11:41:31;5.20;81.90
51661;DHT22;37741;49.748;8.490;2023-11-22T11:44:02;5.20;81.90
51661;DHT22;37741;49.748;8.490;2023-11-22T11:46:30;5.20;81.80
51661;DHT22;37741;49.748;8.490;2023-11-22T11:48:56;5.20;81.70
51661;DHT22;37741;49.748;8.490;2023-11-22T11:51:26;5.20;80.40
51661;DHT22;37741;49.748;8.490;2023-11-22T11:53:55;5.30;81.20
51661;DHT22;37741;49.748;8.490;2023-11-22T11:56:21;5.20;80.10
51661;DHT22;37741;49.748;8.490;2023-11-22T11:58:48;5.30;80.60
51661;DHT22;37741;49.748;8.490;2023-11-22T12:01:18;5.30;81.10
51661;DHT22;37741;49.748;8.490;2023-11-22T12:03:47;5.30;81.10
51661;DHT22;37741;49.748;8.490;2023-11-22T12:06:17;5.30;80.80
51661;DHT22;37741;49.748;8.490;2023-11-22T12:08:44;5.30;80.90
51661;DHT22;37741;49.748;8.490;2023-11-22T12:11:10;5.30;80.90
51661;DHT22;37741;49.748;8.490;2023-11-22T12:13:37;5.40;81.00
51661;DHT22;37741;49.748;8.490;2023-11-22T12:16:14;5.30;80.90
51661;DHT22;37741;49.748;8.490;2023-11-22T12:18:42;5.30;80.70
51661;DHT22;37741;49.748;8.490;2023-11-22T12:21:09;5.40;80.30
51661;DHT22;37741;49.748;8.490;2023-11-22T12:23:38;5.40;80.60
51661;DHT22;37741;49.748;8.490;2023-11-22T12:26:05;5.40;81.30
51661;DHT22;37741;49.748;8.490;2023-11-22T12:28:39;5.40;80.80
51661;DHT22;37741;49.748;8.490;2023-11-22T12:31:13;5.40;80.80
51661;DHT22;37741;49.748;8.490;2023-11-22T12:33:43;5.40;80.80
51661;DHT22;37741;49.748;8.490;2023-11-22T12:36:10;5.40;80.70
51661;DHT22;37741;49.748;8.490;2023-11-22T12:38:40;5.40;80.60
51661;DHT22;37741;49.748;8.490;2023-11-22T12:41:06;5.40;80.60
51661;DHT22;37741;49.748;8.490;2023-11-22T12:43:32;5.40;80.70
51661;DHT22;37741;49.748;8.490;2023-11-22T12:46:03;5.40;80.70
51661;DHT22;37741;49.748;8.490;2023-11-22T12:48:33;5.50;80.70
51661;DHT22;37741;49.748;8.490;2023-11-22T12:51:01;5.50;80.70
51661;DHT22;37741;49.748;8.490;2023-11-22T12:53:27;5.50;80.70
51661;DHT22;37741;49.748;8.490;2023-11-22T12:55:56;5.50;80.80
51661;DHT22;37741;49.748;8.490;2023-11-22T12:58:24;5.50;80.80
51661;DHT22;37741;49.748;8.490;2023-11-22T13:00:51;5.50;80.70
51661;DHT22;37741;49.748;8.490;2023-11-22T13:03:24;5.50;81.10
51661;DHT22;37741;49.748;8.490;2023-11-22T13:05:50;5.50;80.70
51661;DHT22;37741;49.748;8.490;2023-11-22T13:08:18;5.50;80.30
51661;DHT22;37741;49.748;8.490;2023-11-22T13:10:44;5.50;80.40
51661;DHT22;37741;49.748;8.490;2023-11-22T13:13:12;5.50;80.20
51661;DHT22;37741;49.748;8.490;2023-11-22T13:15:38;5.50;80.30
51661;DHT22;37741;49.748;8.490;2023-11-22T13:18:03;5.50;80.40
51661;DHT22;37741;49.748;8.490;2023-11-22T13:20:31;5.60;80.50
51661;DHT22;37741;49.748;8.490;2023-11-22T13:22:57;5.60;80.60
51661;DHT22;37741;49.748;8.490;2023-11-22T13:25:25;5.60;80.50
51661;DHT22;37741;49.748;8.490;2023-11-22T13:27:51;5.60;80.40
51661;DHT22;37741;49.748;8.490;2023-11-22T13:30:19;5.60;80.40
51661;DHT22;37741;49.748;8.490;2023-11-22T13:32:49;5.60;80.50
51661;DHT22;37741;49.748;8.490;2023-11-22T13:35:15;5.60;80.50
51661;DHT22;37741;49.748;8.490;2023-11-22T13:37:45;5.60;80.60
51661;DHT22;37741;49.748;8.490;2023-11-22T13:40:17;5.60;80.30
51661;DHT22;37741;49.748;8.490;2023-11-22T13:42:47;5.60;79.60
51661;DHT22;37741;49.748;8.490;2023-11-22T13:45:14;5.70;79.80
51661;DHT22;37741;49.748;8.490;2023-11-22T13:47:50;5.70;79.40
51661;DHT22;37741;49.748;8.490;2023-11-22T13:50:17;5.70;80.00
51661;DHT22;37741;49.748;8.490;2023-11-22T13:52:51;5.70;80.00
51661;DHT22;37741;49.748;8.490;2023-11-22T13:55:17;5.70;80.30
51661;DHT22;37741;49.748;8.490;2023-11-22T13:57:55;5.70;80.20
51661;DHT22;37741;49.748;8.490;2023-11-22T14:00:22;5.70;80.10
51661;DHT22;37741;49.748;8.490;2023-11-22T14:02:52;5.70;80.20
51661;DHT22;37741;49.748;8.490;2023-11-22T14:05:18;5.70;79.90
51661;DHT22;37741;49.748;8.490;2023-11-22T14:07:44;5.70;80.00
51661;DHT22;37741;49.748;8.490;2023-11-22T14:10:11;5.70;80.10
51661;DHT22;37741;49.748;8.490;2023-11-22T14:12:37;5.70;80.20
51661;DHT22;37741;49.748;8.490;2023-11-22T14:15:04;5.70;80.00
51661;DHT22;37741;49.748;8.490;2023-11-22T14:17:32;5.70;79.50
51661;DHT22;37741;49.748;8.490;2023-11-22T14:19:58;5.70;79.20
51661;DHT22;37741;49.748;8.490;2023-11-22T14:22:24;5.70;79.30
51661;DHT22;37741;49.748;8.490;2023-11-22T14:24:51;5.70;79.30
51661;DHT22;37741;49.748;8.490;2023-11-22T14:27:20;5.70;79.50
51661;DHT22;37741;49.748;8.490;2023-11-22T14:29:49;5.70;79.80
51661;DHT22;37741;49.748;8.490;2023-11-22T14:32:16;5.70;79.60
51661;DHT22;37741;49.748;8.490;2023-11-22T14:34:43;5.70;79.70
51661;DHT22;37741;49.748;8.490;2023-11-22T14:37:12;5.70;79.50
51661;DHT22;37741;49.748;8.490;2023-11-22T14:39:38;5.80;79.60
51661;DHT22;37741;49.748;8.490;2023-11-22T14:42:05;5.70;79.60
51661;DHT22;37741;49.748;8.490;2023-11-22T14:44:34;5.70;79.60
51661;DHT22;37741;49.748;8.490;2023-11-22T14:47:01;5.70;79.60
51661;DHT22;37741;49.748;8.490;2023-11-22T14:49:32;5.80;79.90
51661;DHT22;37741;49.748;8.490;2023-11-22T14:51:58;5.70;79.60
51661;DHT22;37741;49.748;8.490;2023-11-22T14:54:24;5.70;79.80
51661;DHT22;37741;49.748;8.490;2023-11-22T14:56:50;5.70;79.90
51661;DHT22;37741;49.748;8.490;2023-11-22T14:59:18;5.80;79.90
51661;DHT22;37741;49.748;8.490;2023-11-22T15:01:44;5.70;79.90
51661;DHT22;37741;49.748;8.490;2023-11-22T15:04:11;5.70;79.90
51661;DHT22;37741;49.748;8.490;2023-11-22T15:06:37;5.80;80.00
51661;DHT22;37741;49.748;8.490;2023-11-22T15:09:03;5.80;80.10
51661;DHT22;37741;49.748;8.490;2023-11-22T15:11:36;5.70;80.00
51661;DHT22;37741;49.748;8.490;2023-11-22T15:14:03;5.80;79.70
51661;DHT22;37741;49.748;8.490;2023-11-22T15:16:29;5.80;80.00
51661;DHT22;37741;49.748;8.490;2023-11-22T15:18:56;5.80;78.40
51661;DHT22;37741;49.748;8.490;2023-11-22T15:21:22;5.80;78.80
51661;DHT22;37741;49.748;8.490;2023-11-22T15:23:48;5.80;79.40
51661;DHT22;37741;49.748;8.490;2023-11-22T15:26:13;5.70;78.30
51661;DHT22;37741;49.748;8.490;2023-11-22T15:28:39;5.70;76.10
51661;DHT22;37741;49.748;8.490;2023-11-22T15:31:05;5.70;77.00
51661;DHT22;37741;49.748;8.490;2023-11-22T15:33:33;5.70;78.70
51661;DHT22;37741;49.748;8.490;2023-11-22T15:36:05;5.70;79.30
51661;DHT22;37741;49.748;8.490;2023-11-22T15:38:31;5.70;79.50
51661;DHT22;37741;49.748;8.490;2023-11-22T15:40:56;5.70;79.40
51661;DHT22;37741;49.748;8.490;2023-11-22T15:43:22;5.60;79.30